sensor_id;sensor_type;location;lat;lon;timestamp;P1;durP1;ratioP1;P2;durP2;ratioP2
65289;SDS011;51893;59.754;10.110;2022-11-20T00:02:23;0.50;;;0.50;;
65289;SDS011;51893;59.754;10.110;2022-11-20T00:04:51;0.50;;;0.50;;
65289;SDS011;51893;59.754;10.110;2022-11-20T00:07:19;0.40;;;0.40;;
65289;SDS011;51893;59.754;10.110;2022-11-20T00:09:48;0.40;;;0.40;;
65289;SDS011;51893;59.754;10.110;2022-11-20T00:12:18;0.60;;;0.60;;
65289;SDS011;51893;59.754;10.110;2022-11-20T00:14:47;0.50;;;0.50;;
65289;SDS011;51893;59.754;10.110;2022-11-20T00:17:16;0.70;;;0.60;;
65289;SDS011;51893;59.754;10.110;2022-11-20T00:19:43;0.60;;;0.60;;
65289;SDS011;51893;59.754;10.110;2022-11-20T00:22:13;0.50;;;0.50;;
65289;SDS011;51893;59.754;10.110;2022-11-20T00:24:41;0.30;;;0.30;;
65289;SDS011;51893;59.754;10.110;2022-11-20T00:27:11;0.60;;;0.60;;
65289;SDS011;51893;59.754;10.110;2022-11-20T00:29:39;0.60;;;0.60;;
65289;SDS011;51893;59.754;10.110;2022-11-20T00:32:06;0.50;;;0.50;;
65289;SDS011;51893;59.754;10.110;2022-11-20T00:34:36;0.50;;;0.50;;
65289;SDS011;51893;59.754;10.110;2022-11-20T00:37:05;0.50;;;0.50;;
65289;SDS011;51893;59.754;10.110;2022-11-20T00:39:34;2.40;;;0.50;;
65289;SDS011;51893;59.754;10.110;2022-11-20T00:42:05;0.50;;;0.50;;
65289;SDS011;51893;59.754;10.110;2022-11-20T00:44:33;0.60;;;0.60;;
65289;SDS011;51893;59.754;10.110;2022-11-20T00:47:03;0.60;;;0.60;;
65289;SDS011;51893;59.754;10.110;2022-11-20T00:49:40;0.70;;;0.60;;
65289;SDS011;51893;59.754;10.110;2022-11-20T00:52:08;0.40;;;0.40;;
65289;SDS011;51893;59.754;10.110;2022-11-20T00:54:38;1.30;;;0.50;;
65289;SDS011;51893;59.754;10.110;2022-11-20T00:57:06;0.40;;;0.40;;
65289;SDS011;51893;59.754;10.110;2022-11-20T00:59:34;0.70;;;0.60;;
65289;SDS011;51893;59.754;10.110;2022-11-20T01:02:04;0.50;;;0.50;;
65289;SDS011;51893;59.754;10.110;2022-11-20T01:04:32;0.50;;;0.50;;
65289;SDS011;51893;59.754;10.110;2022-11-20T01:07:00;0.50;;;0.50;;
65289;SDS011;51893;59.754;10.110;2022-11-20T01:09:28;0.60;;;0.60;;
65289;SDS011;51893;59.754;10.110;2022-11-20T01:11:56;0.40;;;0.40;;
65289;SDS011;51893;59.754;10.110;2022-11-20T01:14:25;0.40;;;0.40;;
65289;SDS011;51893;59.754;10.110;2022-11-20T01:16:54;0.40;;;0.40;;
65289;SDS011;51893;59.754;10.110;2022-11-20T01:19:24;0.50;;;0.50;;
65289;SDS011;51893;59.754;10.110;2022-11-20T01:21:54;0.40;;;0.40;;
65289;SDS011;51893;59.754;10.110;2022-11-20T01:24:24;0.40;;;0.40;;
65289;SDS011;51893;59.754;10.110;2022-11-20T01:26:53;0.60;;;0.60;;
65289;SDS011;51893;59.754;10.110;2022-11-20T01:29:24;1.10;;;0.50;;
65289;SDS011;51893;59.754;10.110;2022-11-20T01:31:56;0.50;;;0.50;;
65289;SDS011;51893;59.754;10.110;2022-11-20T01:34:25;0.30;;;0.30;;
65289;SDS011;51893;59.754;10.110;2022-11-20T01:36:53;1.40;;;0.60;;
65289;SDS011;51893;59.754;10.110;2022-11-20T01:39:25;1.70;;;0.50;;
65289;SDS011;51893;59.754;10.110;2022-11-20T01:41:55;0.90;;;0.70;;
65289;SDS011;51893;59.754;10.110;2022-11-20T01:44:59;0.60;;;0.60;;
65289;SDS011;51893;59.754;10.110;2022-11-20T01:47:37;0.90;;;0.40;;
65289;SDS011;51893;59.754;10.110;2022-11-20T01:50:22;0.40;;;0.40;;
65289;SDS011;51893;59.754;10.110;2022-11-20T01:53:02;0.50;;;0.50;;
65289;SDS011;51893;59.754;10.110;2022-11-20T01:55:39;0.40;;;0.40;;
65289;SDS011;51893;59.754;10.110;2022-11-20T01:58:12;0.40;;;0.40;;
65289;SDS011;51893;59.754;10.110;2022-11-20T02:00:43;0.70;;;0.70;;
65289;SDS011;51893;59.754;10.110;2022-11-20T02:03:15;0.60;;;0.60;;
65289;SDS011;51893;59.754;10.110;2022-11-20T02:09:02;0.50;;;0.50;;
65289;SDS011;51893;59.754;10.110;2022-11-20T02:11:31;0.70;;;0.70;;
65289;SDS011;51893;59.754;10.110;2022-11-20T02:13:59;0.50;;;0.50;;
65289;SDS011;51893;59.754;10.110;2022-11-20T02:16:35;1.20;;;0.60;;
65289;SDS011;51893;59.754;10.110;2022-11-20T02:19:16;0.80;;;0.50;;
65289;SDS011;51893;59.754;10.110;2022-11-20T02:22:02;0.60;;;0.60;;
65289;SDS011;51893;59.754;10.110;2022-11-20T02:24:52;0.50;;;0.50;;
65289;SDS011;51893;59.754;10.110;2022-11-20T02:27:20;0.60;;;0.60;;
65289;SDS011;51893;59.754;10.110;2022-11-20T02:29:57;0.50;;;0.50;;
65289;SDS011;51893;59.754;10.110;2022-11-20T02:32:35;3.80;;;0.50;;
65289;SDS011;51893;59.754;10.110;2022-11-20T02:37:54;0.30;;;0.30;;
65289;SDS011;51893;59.754;10.110;2022-11-20T02:40:24;0.50;;;0.50;;
65289;SDS011;51893;59.754;10.110;2022-11-20T02:42:55;0.60;;;0.60;;
65289;SDS011;51893;59.754;10.110;2022-11-20T02:45:25;0.50;;;0.40;;
65289;SDS011;51893;59.754;10.110;2022-11-20T02:47:55;0.50;;;0.50;;
65289;SDS011;51893;59.754;10.110;2022-11-20T02:50:23;0.60;;;0.60;;
65289;SDS011;51893;59.754;10.110;2022-11-20T02:52:59;0.60;;;0.60;;
65289;SDS011;51893;59.754;10.110;2022-11-20T02:55:28;1.10;;;0.60;;
65289;SDS011;51893;59.754;10.110;2022-11-20T02:57:57;1.00;;;0.50;;
65289;SDS011;51893;59.754;10.110;2022-11-20T03:00:25;0.60;;;0.60;;
65289;SDS011;51893;59.754;10.110;2022-11-20T03:02:54;0.60;;;0.60;;
65289;SDS011;51893;59.754;10.110;2022-11-20T03:05:22;0.50;;;0.50;;
65289;SDS011;51893;59.754;10.110;2022-11-20T03:07:50;0.50;;;0.50;;
65289;SDS011;51893;59.754;10.110;2022-11-20T03:10:21;0.70;;;0.70;;
65289;SDS011;51893;59.754;10.110;2022-11-20T03:12:54;0.60;;;0.60;;
65289;SDS011;51893;59.754;10.110;2022-11-20T03:15:27;0.50;;;0.50;;
65289;SDS011;51893;59.754;10.110;2022-11-20T03:17:57;0.50;;;0.50;;
65289;SDS011;51893;59.754;10.110;2022-11-20T03:20:25;1.00;;;0.60;;
65289;SDS011;51893;59.754;10.110;2022-11-20T03:22:55;0.40;;;0.40;;
65289;SDS011;51893;59.754;10.110;2022-11-20T03:25:23;0.60;;;0.60;;
65289;SDS011;51893;59.754;10.110;2022-11-20T03:27:55;0.20;;;0.20;;
65289;SDS011;51893;59.754;10.110;2022-11-20T03:30:24;1.80;;;0.60;;
65289;SDS011;51893;59.754;10.110;2022-11-20T03:32:58;2.20;;;0.80;;
65289;SDS011;51893;59.754;10.110;2022-11-20T03:35:26;0.50;;;0.50;;
65289;SDS011;51893;59.754;10.110;2022-11-20T03:37:56;0.50;;;0.50;;
65289;SDS011;51893;59.754;10.110;2022-11-20T03:40:25;0.60;;;0.60;;
65289;SDS011;51893;59.754;10.110;2022-11-20T03:42:53;0.50;;;0.50;;
65289;SDS011;51893;59.754;10.110;2022-11-20T03:45:22;0.40;;;0.40;;
65289;SDS011;51893;59.754;10.110;2022-11-20T03:47:50;0.50;;;0.50;;
65289;SDS011;51893;59.754;10.110;2022-11-20T03:50:19;0.70;;;0.60;;
65289;SDS011;51893;59.754;10.110;2022-11-20T03:52:50;1.40;;;0.70;;
65289;SDS011;51893;59.754;10.110;2022-11-20T03:55:18;0.70;;;0.70;;
65289;SDS011;51893;59.754;10.110;2022-11-20T03:57:48;1.10;;;0.70;;
65289;SDS011;51893;59.754;10.110;2022-11-20T04:00:16;0.90;;;0.50;;
65289;SDS011;51893;59.754;10.110;2022-11-20T04:02:44;0.70;;;0.70;;
65289;SDS011;51893;59.754;10.110;2022-11-20T04:05:16;0.50;;;0.50;;
65289;SDS011;51893;59.754;10.110;2022-11-20T04:07:44;0.70;;;0.50;;
65289;SDS011;51893;59.754;10.110;2022-11-20T04:10:13;0.30;;;0.30;;
65289;SDS011;51893;59.754;10.110;2022-11-20T04:12:43;0.50;;;0.50;;
65289;SDS011;51893;59.754;10.110;2022-11-20T04:15:12;0.70;;;0.70;;
65289;SDS011;51893;59.754;10.110;2022-11-20T04:17:41;1.30;;;0.50;;
65289;SDS011;51893;59.754;10.110;2022-11-20T04:20:10;0.50;;;0.50;;
65289;SDS011;51893;59.754;10.110;2022-11-20T04:22:39;0.40;;;0.40;;
65289;SDS011;51893;59.754;10.110;2022-11-20T04:25:09;0.50;;;0.50;;
65289;SDS011;51893;59.754;10.110;2022-11-20T04:27:38;0.40;;;0.40;;
65289;SDS011;51893;59.754;10.110;2022-11-20T04:30:07;0.40;;;0.40;;
65289;SDS011;51893;59.754;10.110;2022-11-20T04:32:35;0.50;;;0.50;;
65289;SDS011;51893;59.754;10.110;2022-11-20T04:35:10;0.50;;;0.50;;
65289;SDS011;51893;59.754;10.110;2022-11-20T04:40:09;0.70;;;0.70;;
65289;SDS011;51893;59.754;10.110;2022-11-20T04:42:38;0.40;;;0.40;;
65289;SDS011;51893;59.754;10.110;2022-11-20T04:45:08;0.50;;;0.50;;
65289;SDS011;51893;59.754;10.110;2022-11-20T04:47:41;0.80;;;0.80;;
65289;SDS011;51893;59.754;10.110;2022-11-20T04:50:09;0.40;;;0.40;;
65289;SDS011;51893;59.754;10.110;2022-11-20T04:52:40;1.00;;;0.60;;
65289;SDS011;51893;59.754;10.110;2022-11-20T04:55:10;0.60;;;0.50;;
65289;SDS011;51893;59.754;10.110;2022-11-20T04:57:39;0.50;;;0.50;;
65289;SDS011;51893;59.754;10.110;2022-11-20T05:00:07;1.00;;;0.50;;
65289;SDS011;51893;59.754;10.110;2022-11-20T05:02:38;0.40;;;0.40;;
65289;SDS011;51893;59.754;10.110;2022-11-20T05:05:10;0.70;;;0.60;;
65289;SDS011;51893;59.754;10.110;2022-11-20T05:07:39;0.60;;;0.60;;
65289;SDS011;51893;59.754;10.110;2022-11-20T05:10:08;1.50;;;0.70;;
65289;SDS011;51893;59.754;10.110;2022-11-20T05:12:36;0.50;;;0.50;;
65289;SDS011;51893;59.754;10.110;2022-11-20T05:15:05;0.40;;;0.40;;
65289;SDS011;51893;59.754;10.110;2022-11-20T05:17:36;0.60;;;0.60;;
65289;SDS011;51893;59.754;10.110;2022-11-20T05:20:09;0.70;;;0.70;;
65289;SDS011;51893;59.754;10.110;2022-11-20T05:22:38;0.60;;;0.60;;
65289;SDS011;51893;59.754;10.110;2022-11-20T05:25:07;0.60;;;0.60;;
65289;SDS011;51893;59.754;10.110;2022-11-20T05:27:36;0.50;;;0.50;;
65289;SDS011;51893;59.754;10.110;2022-11-20T05:30:05;0.30;;;0.30;;
65289;SDS011;51893;59.754;10.110;2022-11-20T05:32:39;0.70;;;0.70;;
65289;SDS011;51893;59.754;10.110;2022-11-20T05:35:07;0.50;;;0.50;;
65289;SDS011;51893;59.754;10.110;2022-11-20T05:37:36;0.60;;;0.50;;
65289;SDS011;51893;59.754;10.110;2022-11-20T05:40:08;0.30;;;0.30;;
65289;SDS011;51893;59.754;10.110;2022-11-20T05:42:38;0.60;;;0.60;;
65289;SDS011;51893;59.754;10.110;2022-11-20T05:45:08;0.60;;;0.60;;
65289;SDS011;51893;59.754;10.110;2022-11-20T05:47:37;0.70;;;0.70;;
65289;SDS011;51893;59.754;10.110;2022-11-20T05:50:07;0.50;;;0.50;;
65289;SDS011;51893;59.754;10.110;2022-11-20T05:52:35;0.50;;;0.50;;
65289;SDS011;51893;59.754;10.110;2022-11-20T05:55:06;1.00;;;0.50;;
65289;SDS011;51893;59.754;10.110;2022-11-20T05:57:35;0.40;;;0.40;;
65289;SDS011;51893;59.754;10.110;2022-11-20T06:00:04;2.10;;;0.60;;
65289;SDS011;51893;59.754;10.110;2022-11-20T06:02:36;0.60;;;0.60;;
65289;SDS011;51893;59.754;10.110;2022-11-20T06:05:05;0.50;;;0.50;;
65289;SDS011;51893;59.754;10.110;2022-11-20T06:07:37;0.30;;;0.30;;
65289;SDS011;51893;59.754;10.110;2022-11-20T06:10:10;1.80;;;0.50;;
65289;SDS011;51893;59.754;10.110;2022-11-20T06:12:41;0.60;;;0.60;;
65289;SDS011;51893;59.754;10.110;2022-11-20T06:15:13;1.10;;;0.70;;
65289;SDS011;51893;59.754;10.110;2022-11-20T06:17:46;0.60;;;0.60;;
65289;SDS011;51893;59.754;10.110;2022-11-20T06:20:14;0.70;;;0.70;;
65289;SDS011;51893;59.754;10.110;2022-11-20T06:22:44;0.70;;;0.70;;
65289;SDS011;51893;59.754;10.110;2022-11-20T06:25:12;0.50;;;0.50;;
65289;SDS011;51893;59.754;10.110;2022-11-20T06:27:41;0.60;;;0.60;;
65289;SDS011;51893;59.754;10.110;2022-11-20T06:30:11;0.50;;;0.50;;
65289;SDS011;51893;59.754;10.110;2022-11-20T06:32:40;0.70;;;0.70;;
65289;SDS011;51893;59.754;10.110;2022-11-20T06:35:15;0.50;;;0.50;;
65289;SDS011;51893;59.754;10.110;2022-11-20T06:37:47;0.50;;;0.50;;
65289;SDS011;51893;59.754;10.110;2022-11-20T06:40:19;0.60;;;0.60;;
65289;SDS011;51893;59.754;10.110;2022-11-20T06:42:47;0.60;;;0.60;;
65289;SDS011;51893;59.754;10.110;2022-11-20T06:45:15;1.00;;;0.60;;
65289;SDS011;51893;59.754;10.110;2022-11-20T06:47:52;0.70;;;0.60;;
65289;SDS011;51893;59.754;10.110;2022-11-20T06:50:20;0.80;;;0.80;;
65289;SDS011;51893;59.754;10.110;2022-11-20T06:52:49;0.60;;;0.40;;
65289;SDS011;51893;59.754;10.110;2022-11-20T06:55:18;0.60;;;0.60;;
65289;SDS011;51893;59.754;10.110;2022-11-20T06:57:46;0.90;;;0.70;;
65289;SDS011;51893;59.754;10.110;2022-11-20T07:00:20;0.50;;;0.50;;
65289;SDS011;51893;59.754;10.110;2022-11-20T07:02:49;0.70;;;0.60;;
65289;SDS011;51893;59.754;10.110;2022-11-20T07:05:19;0.90;;;0.80;;
65289;SDS011;51893;59.754;10.110;2022-11-20T07:07:49;0.60;;;0.60;;
65289;SDS011;51893;59.754;10.110;2022-11-20T07:10:18;0.70;;;0.70;;
65289;SDS011;51893;59.754;10.110;2022-11-20T07:12:52;0.70;;;0.50;;
65289;SDS011;51893;59.754;10.110;2022-11-20T07:15:22;0.70;;;0.50;;
65289;SDS011;51893;59.754;10.110;2022-11-20T07:17:51;0.60;;;0.60;;
65289;SDS011;51893;59.754;10.110;2022-11-20T07:20:23;0.70;;;0.70;;
65289;SDS011;51893;59.754;10.110;2022-11-20T07:22:59;0.60;;;0.60;;
65289;SDS011;51893;59.754;10.110;2022-11-20T07:25:28;0.60;;;0.60;;
65289;SDS011;51893;59.754;10.110;2022-11-20T07:27:58;0.80;;;0.60;;
65289;SDS011;51893;59.754;10.110;2022-11-20T07:30:29;0.80;;;0.70;;
65289;SDS011;51893;59.754;10.110;2022-11-20T07:32:59;0.90;;;0.70;;
65289;SDS011;51893;59.754;10.110;2022-11-20T07:35:27;1.00;;;0.70;;
65289;SDS011;51893;59.754;10.110;2022-11-20T07:37:56;0.90;;;0.70;;
65289;SDS011;51893;59.754;10.110;2022-11-20T07:40:27;2.10;;;0.70;;
65289;SDS011;51893;59.754;10.110;2022-11-20T07:42:55;3.80;;;0.90;;
65289;SDS011;51893;59.754;10.110;2022-11-20T07:45:25;1.50;;;0.80;;
65289;SDS011;51893;59.754;10.110;2022-11-20T07:47:53;3.50;;;0.80;;
65289;SDS011;51893;59.754;10.110;2022-11-20T07:50:23;0.80;;;0.70;;
65289;SDS011;51893;59.754;10.110;2022-11-20T07:52:51;1.10;;;1.00;;
65289;SDS011;51893;59.754;10.110;2022-11-20T07:55:22;0.70;;;0.70;;
65289;SDS011;51893;59.754;10.110;2022-11-20T07:57:54;0.60;;;0.60;;
65289;SDS011;51893;59.754;10.110;2022-11-20T08:00:26;1.00;;;0.70;;
65289;SDS011;51893;59.754;10.110;2022-11-20T08:02:56;1.20;;;0.90;;
65289;SDS011;51893;59.754;10.110;2022-11-20T08:05:27;3.60;;;1.30;;
65289;SDS011;51893;59.754;10.110;2022-11-20T08:08:03;1.70;;;1.10;;
65289;SDS011;51893;59.754;10.110;2022-11-20T08:10:36;0.70;;;0.70;;
65289;SDS011;51893;59.754;10.110;2022-11-20T08:13:06;0.50;;;0.50;;
65289;SDS011;51893;59.754;10.110;2022-11-20T08:15:58;0.60;;;0.60;;
65289;SDS011;51893;59.754;10.110;2022-11-20T08:18:29;4.80;;;1.50;;
65289;SDS011;51893;59.754;10.110;2022-11-20T08:21:04;0.80;;;0.80;;
65289;SDS011;51893;59.754;10.110;2022-11-20T08:23:35;3.40;;;0.80;;
65289;SDS011;51893;59.754;10.110;2022-11-20T08:26:28;3.70;;;0.80;;
65289;SDS011;51893;59.754;10.110;2022-11-20T08:29:00;0.70;;;0.70;;
65289;SDS011;51893;59.754;10.110;2022-11-20T08:31:36;2.90;;;0.70;;
65289;SDS011;51893;59.754;10.110;2022-11-20T08:34:24;3.80;;;0.70;;
65289;SDS011;51893;59.754;10.110;2022-11-20T08:36:52;1.60;;;1.00;;
65289;SDS011;51893;59.754;10.110;2022-11-20T08:39:29;0.70;;;0.60;;
65289;SDS011;51893;59.754;10.110;2022-11-20T08:41:58;0.70;;;0.70;;
65289;SDS011;51893;59.754;10.110;2022-11-20T08:44:40;0.90;;;0.90;;
65289;SDS011;51893;59.754;10.110;2022-11-20T08:47:15;0.70;;;0.70;;
65289;SDS011;51893;59.754;10.110;2022-11-20T08:49:43;0.60;;;0.60;;
65289;SDS011;51893;59.754;10.110;2022-11-20T08:52:14;2.40;;;1.00;;
65289;SDS011;51893;59.754;10.110;2022-11-20T08:54:43;1.40;;;1.30;;
65289;SDS011;51893;59.754;10.110;2022-11-20T08:57:11;3.50;;;1.60;;
65289;SDS011;51893;59.754;10.110;2022-11-20T08:59:42;5.30;;;1.60;;
65289;SDS011;51893;59.754;10.110;2022-11-20T09:02:30;1.90;;;1.50;;
65289;SDS011;51893;59.754;10.110;2022-11-20T09:05:02;2.00;;;1.30;;
65289;SDS011;51893;59.754;10.110;2022-11-20T09:07:37;0.60;;;0.60;;
65289;SDS011;51893;59.754;10.110;2022-11-20T09:10:07;1.40;;;1.30;;
65289;SDS011;51893;59.754;10.110;2022-11-20T09:12:52;2.20;;;0.60;;
65289;SDS011;51893;59.754;10.110;2022-11-20T09:15:27;1.50;;;1.40;;
65289;SDS011;51893;59.754;10.110;2022-11-20T09:18:02;2.40;;;1.40;;
65289;SDS011;51893;59.754;10.110;2022-11-20T09:20:33;0.70;;;0.70;;
65289;SDS011;51893;59.754;10.110;2022-11-20T09:23:03;0.60;;;0.60;;
65289;SDS011;51893;59.754;10.110;2022-11-20T09:25:34;1.10;;;1.00;;
65289;SDS011;51893;59.754;10.110;2022-11-20T09:28:09;1.90;;;1.30;;
65289;SDS011;51893;59.754;10.110;2022-11-20T09:30:37;0.60;;;0.60;;
65289;SDS011;51893;59.754;10.110;2022-11-20T09:33:08;0.60;;;0.60;;
65289;SDS011;51893;59.754;10.110;2022-11-20T09:35:38;1.00;;;0.60;;
65289;SDS011;51893;59.754;10.110;2022-11-20T09:38:10;1.20;;;1.00;;
65289;SDS011;51893;59.754;10.110;2022-11-20T09:47:12;1.20;;;1.00;;
65289;SDS011;51893;59.754;10.110;2022-11-20T09:56:21;0.60;;;0.60;;
65289;SDS011;51893;59.754;10.110;2022-11-20T09:58:52;0.50;;;0.50;;
65289;SDS011;51893;59.754;10.110;2022-11-20T10:01:39;0.60;;;0.60;;
65289;SDS011;51893;59.754;10.110;2022-11-20T10:04:19;1.00;;;0.70;;
65289;SDS011;51893;59.754;10.110;2022-11-20T10:07:23;1.70;;;0.90;;
65289;SDS011;51893;59.754;10.110;2022-11-20T10:10:45;0.60;;;0.60;;
65289;SDS011;51893;59.754;10.110;2022-11-20T10:14:02;0.70;;;0.70;;
65289;SDS011;51893;59.754;10.110;2022-11-20T10:25:53;0.60;;;0.60;;
65289;SDS011;51893;59.754;10.110;2022-11-20T10:31:44;11.20;;;3.60;;
65289;SDS011;51893;59.754;10.110;2022-11-20T10:39:54;0.90;;;0.80;;
65289;SDS011;51893;59.754;10.110;2022-11-20T10:46:36;2.80;;;1.30;;
65289;SDS011;51893;59.754;10.110;2022-11-20T10:49:15;0.90;;;0.70;;
65289;SDS011;51893;59.754;10.110;2022-11-20T10:55:53;5.10;;;2.20;;
65289;SDS011;51893;59.754;10.110;2022-11-20T11:02:24;1.50;;;0.80;;
65289;SDS011;51893;59.754;10.110;2022-11-20T11:07:59;0.80;;;0.60;;
65289;SDS011;51893;59.754;10.110;2022-11-20T11:13:23;0.70;;;0.60;;
65289;SDS011;51893;59.754;10.110;2022-11-20T11:15:54;0.90;;;0.80;;
65289;SDS011;51893;59.754;10.110;2022-11-20T11:18:29;1.20;;;1.00;;
65289;SDS011;51893;59.754;10.110;2022-11-20T11:21:02;0.60;;;0.60;;
65289;SDS011;51893;59.754;10.110;2022-11-20T11:23:38;1.30;;;0.80;;
65289;SDS011;51893;59.754;10.110;2022-11-20T11:26:23;0.70;;;0.70;;
65289;SDS011;51893;59.754;10.110;2022-11-20T11:28:54;0.70;;;0.70;;
65289;SDS011;51893;59.754;10.110;2022-11-20T11:31:34;3.50;;;1.20;;
65289;SDS011;51893;59.754;10.110;2022-11-20T11:34:14;1.30;;;0.90;;
65289;SDS011;51893;59.754;10.110;2022-11-20T11:37:17;2.90;;;1.40;;
65289;SDS011;51893;59.754;10.110;2022-11-20T11:39:50;1.60;;;1.50;;
65289;SDS011;51893;59.754;10.110;2022-11-20T11:43:05;3.30;;;1.70;;
65289;SDS011;51893;59.754;10.110;2022-11-20T11:54:53;0.70;;;0.70;;
65289;SDS011;51893;59.754;10.110;2022-11-20T12:01:24;5.80;;;1.00;;
65289;SDS011;51893;59.754;10.110;2022-11-20T12:05:00;1.20;;;0.90;;
65289;SDS011;51893;59.754;10.110;2022-11-20T12:07:43;0.40;;;0.40;;
65289;SDS011;51893;59.754;10.110;2022-11-20T12:16:38;0.60;;;0.60;;
65289;SDS011;51893;59.754;10.110;2022-11-20T12:19:14;0.60;;;0.60;;
65289;SDS011;51893;59.754;10.110;2022-11-20T12:22:09;0.60;;;0.60;;
65289;SDS011;51893;59.754;10.110;2022-11-20T12:25:24;0.80;;;0.80;;
65289;SDS011;51893;59.754;10.110;2022-11-20T12:28:52;1.40;;;0.70;;
65289;SDS011;51893;59.754;10.110;2022-11-20T12:34:58;0.40;;;0.40;;
65289;SDS011;51893;59.754;10.110;2022-11-20T12:37:51;1.00;;;1.00;;
65289;SDS011;51893;59.754;10.110;2022-11-20T12:48:01;0.80;;;0.70;;
65289;SDS011;51893;59.754;10.110;2022-11-20T13:00:28;4.70;;;1.40;;
65289;SDS011;51893;59.754;10.110;2022-11-20T13:06:15;0.90;;;0.90;;
65289;SDS011;51893;59.754;10.110;2022-11-20T13:08:53;0.60;;;0.60;;
65289;SDS011;51893;59.754;10.110;2022-11-20T13:11:45;0.80;;;0.80;;
65289;SDS011;51893;59.754;10.110;2022-11-20T13:14:41;0.80;;;0.80;;
65289;SDS011;51893;59.754;10.110;2022-11-20T13:18:00;0.50;;;0.50;;
65289;SDS011;51893;59.754;10.110;2022-11-20T13:20:33;1.20;;;0.80;;
65289;SDS011;51893;59.754;10.110;2022-11-20T13:23:03;1.30;;;0.90;;
65289;SDS011;51893;59.754;10.110;2022-11-20T13:25:37;3.30;;;1.40;;
65289;SDS011;51893;59.754;10.110;2022-11-20T13:30:53;1.60;;;1.00;;
65289;SDS011;51893;59.754;10.110;2022-11-20T13:33:36;0.60;;;0.60;;
65289;SDS011;51893;59.754;10.110;2022-11-20T13:36:21;0.70;;;0.60;;
65289;SDS011;51893;59.754;10.110;2022-11-20T13:38:55;9.50;;;3.50;;
65289;SDS011;51893;59.754;10.110;2022-11-20T13:41:32;19.80;;;6.20;;
65289;SDS011;51893;59.754;10.110;2022-11-20T13:44:32;9.10;;;3.30;;
65289;SDS011;51893;59.754;10.110;2022-11-20T13:47:24;4.60;;;2.10;;
65289;SDS011;51893;59.754;10.110;2022-11-20T13:49:55;3.60;;;1.80;;
65289;SDS011;51893;59.754;10.110;2022-11-20T13:56:04;1.70;;;0.80;;
65289;SDS011;51893;59.754;10.110;2022-11-20T13:58:43;1.50;;;1.10;;
65289;SDS011;51893;59.754;10.110;2022-11-20T14:01:32;3.30;;;1.10;;
65289;SDS011;51893;59.754;10.110;2022-11-20T14:04:08;0.90;;;0.70;;
65289;SDS011;51893;59.754;10.110;2022-11-20T14:06:45;0.50;;;0.50;;
65289;SDS011;51893;59.754;10.110;2022-11-20T14:09:29;0.80;;;0.80;;
65289;SDS011;51893;59.754;10.110;2022-11-20T14:11:59;4.20;;;2.20;;
65289;SDS011;51893;59.754;10.110;2022-11-20T14:14:29;2.30;;;1.00;;
65289;SDS011;51893;59.754;10.110;2022-11-20T14:17:21;2.30;;;1.10;;
65289;SDS011;51893;59.754;10.110;2022-11-20T14:19:54;1.20;;;1.00;;
65289;SDS011;51893;59.754;10.110;2022-11-20T14:22:26;0.90;;;0.80;;
65289;SDS011;51893;59.754;10.110;2022-11-20T14:25:17;1.80;;;0.70;;
65289;SDS011;51893;59.754;10.110;2022-11-20T14:27:52;0.60;;;0.60;;
65289;SDS011;51893;59.754;10.110;2022-11-20T14:30:36;1.10;;;0.70;;
65289;SDS011;51893;59.754;10.110;2022-11-20T14:33:13;1.00;;;0.90;;
65289;SDS011;51893;59.754;10.110;2022-11-20T14:35:50;0.50;;;0.50;;
65289;SDS011;51893;59.754;10.110;2022-11-20T14:38:29;2.00;;;0.90;;
65289;SDS011;51893;59.754;10.110;2022-11-20T14:41:08;0.50;;;0.50;;
65289;SDS011;51893;59.754;10.110;2022-11-20T14:43:55;1.00;;;0.90;;
65289;SDS011;51893;59.754;10.110;2022-11-20T14:46:26;3.10;;;0.70;;
65289;SDS011;51893;59.754;10.110;2022-11-20T14:48:59;0.70;;;0.70;;
65289;SDS011;51893;59.754;10.110;2022-11-20T14:51:38;0.80;;;0.80;;
65289;SDS011;51893;59.754;10.110;2022-11-20T14:54:15;0.90;;;0.80;;
65289;SDS011;51893;59.754;10.110;2022-11-20T14:56:57;0.50;;;0.50;;
65289;SDS011;51893;59.754;10.110;2022-11-20T14:59:30;2.90;;;1.40;;
65289;SDS011;51893;59.754;10.110;2022-11-20T15:02:11;2.80;;;1.30;;
65289;SDS011;51893;59.754;10.110;2022-11-20T15:05:01;3.20;;;1.50;;
65289;SDS011;51893;59.754;10.110;2022-11-20T15:07:40;1.30;;;1.20;;
65289;SDS011;51893;59.754;10.110;2022-11-20T15:10:24;0.80;;;0.80;;
65289;SDS011;51893;59.754;10.110;2022-11-20T15:13:03;1.30;;;1.20;;
65289;SDS011;51893;59.754;10.110;2022-11-20T15:15:54;2.60;;;1.50;;
65289;SDS011;51893;59.754;10.110;2022-11-20T15:18:41;4.00;;;1.40;;
65289;SDS011;51893;59.754;10.110;2022-11-20T15:21:16;3.40;;;1.20;;
65289;SDS011;51893;59.754;10.110;2022-11-20T15:24:00;2.10;;;1.50;;
65289;SDS011;51893;59.754;10.110;2022-11-20T15:26:31;0.80;;;0.80;;
65289;SDS011;51893;59.754;10.110;2022-11-20T15:29:04;1.40;;;1.10;;
65289;SDS011;51893;59.754;10.110;2022-11-20T15:31:33;2.00;;;1.40;;
65289;SDS011;51893;59.754;10.110;2022-11-20T15:34:07;3.10;;;2.00;;
65289;SDS011;51893;59.754;10.110;2022-11-20T15:36:43;0.90;;;0.90;;
65289;SDS011;51893;59.754;10.110;2022-11-20T15:39:13;0.60;;;0.60;;
65289;SDS011;51893;59.754;10.110;2022-11-20T15:41:46;1.80;;;0.70;;
65289;SDS011;51893;59.754;10.110;2022-11-20T15:44:17;0.70;;;0.70;;
65289;SDS011;51893;59.754;10.110;2022-11-20T15:46:46;0.70;;;0.70;;
65289;SDS011;51893;59.754;10.110;2022-11-20T15:49:16;3.60;;;0.70;;
65289;SDS011;51893;59.754;10.110;2022-11-20T15:51:52;1.10;;;0.80;;
65289;SDS011;51893;59.754;10.110;2022-11-20T15:54:22;1.40;;;1.20;;
65289;SDS011;51893;59.754;10.110;2022-11-20T15:56:55;0.70;;;0.70;;
65289;SDS011;51893;59.754;10.110;2022-11-20T15:59:26;1.00;;;0.90;;
65289;SDS011;51893;59.754;10.110;2022-11-20T16:01:58;2.10;;;1.00;;
65289;SDS011;51893;59.754;10.110;2022-11-20T16:04:44;1.70;;;0.90;;
65289;SDS011;51893;59.754;10.110;2022-11-20T16:07:18;1.90;;;1.60;;
65289;SDS011;51893;59.754;10.110;2022-11-20T16:09:50;2.40;;;2.20;;
65289;SDS011;51893;59.754;10.110;2022-11-20T16:12:25;1.80;;;1.70;;
65289;SDS011;51893;59.754;10.110;2022-11-20T16:15:12;6.10;;;2.20;;
65289;SDS011;51893;59.754;10.110;2022-11-20T16:17:59;11.30;;;3.00;;
65289;SDS011;51893;59.754;10.110;2022-11-20T16:20:33;5.80;;;2.10;;
65289;SDS011;51893;59.754;10.110;2022-11-20T16:23:03;2.50;;;1.90;;
65289;SDS011;51893;59.754;10.110;2022-11-20T16:25:50;3.80;;;1.70;;
65289;SDS011;51893;59.754;10.110;2022-11-20T16:28:21;3.30;;;2.10;;
65289;SDS011;51893;59.754;10.110;2022-11-20T16:30:50;3.20;;;1.40;;
65289;SDS011;51893;59.754;10.110;2022-11-20T16:33:18;1.20;;;0.90;;
65289;SDS011;51893;59.754;10.110;2022-11-20T16:35:47;1.00;;;0.80;;
65289;SDS011;51893;59.754;10.110;2022-11-20T16:41:00;2.50;;;1.40;;
65289;SDS011;51893;59.754;10.110;2022-11-20T16:43:32;3.90;;;1.80;;
65289;SDS011;51893;59.754;10.110;2022-11-20T16:46:03;1.00;;;0.90;;
65289;SDS011;51893;59.754;10.110;2022-11-20T16:48:32;4.60;;;1.00;;
65289;SDS011;51893;59.754;10.110;2022-11-20T16:51:03;2.00;;;1.10;;
65289;SDS011;51893;59.754;10.110;2022-11-20T16:53:41;0.80;;;0.80;;
65289;SDS011;51893;59.754;10.110;2022-11-20T16:56:18;0.60;;;0.60;;
65289;SDS011;51893;59.754;10.110;2022-11-20T16:59:02;0.60;;;0.60;;
65289;SDS011;51893;59.754;10.110;2022-11-20T17:01:33;0.60;;;0.60;;
65289;SDS011;51893;59.754;10.110;2022-11-20T17:04:07;0.70;;;0.70;;
65289;SDS011;51893;59.754;10.110;2022-11-20T17:06:43;1.20;;;0.90;;